sensor_id;sensor_type;location;lat;lon;timestamp;P1;durP1;ratioP1;P2;durP2;ratioP2
22191;SDS011;11261;52.456;10.850;2023-05-29T00:00:56;3.80;;;1.98;;
22191;SDS011;11261;52.456;10.850;2023-05-29T00:03:24;2.38;;;2.05;;
22191;SDS011;11261;52.456;10.850;2023-05-29T00:05:52;4.25;;;1.80;;
22191;SDS011;11261;52.456;10.850;2023-05-29T00:08:21;5.80;;;1.90;;
22191;SDS011;11261;52.456;10.850;2023-05-29T00:10:50;3.30;;;1.60;;
22191;SDS011;11261;52.456;10.850;2023-05-29T00:13:18;4.15;;;2.05;;
22191;SDS011;11261;52.456;10.850;2023-05-29T00:15:48;3.97;;;2.13;;
22191;SDS011;11261;52.456;10.850;2023-05-29T00:18:16;5.43;;;2.28;;
22191;SDS011;11261;52.456;10.850;2023-05-29T00:20:44;3.97;;;2.30;;
22191;SDS011;11261;52.456;10.850;2023-05-29T00:23:13;3.58;;;1.92;;
22191;SDS011;11261;52.456;10.850;2023-05-29T00:25:41;3.10;;;2.08;;
22191;SDS011;11261;52.456;10.850;2023-05-29T00:28:09;4.07;;;2.30;;
22191;SDS011;11261;52.456;10.850;2023-05-29T00:30:38;2.90;;;2.08;;
22191;SDS011;11261;52.456;10.850;2023-05-29T00:33:08;3.05;;;1.75;;
22191;SDS011;11261;52.456;10.850;2023-05-29T00:35:37;5.70;;;2.33;;
22191;SDS011;11261;52.456;10.850;2023-05-29T00:38:06;6.07;;;2.50;;
22191;SDS011;11261;52.456;10.850;2023-05-29T00:40:34;5.18;;;2.55;;
22191;SDS011;11261;52.456;10.850;2023-05-29T00:43:02;5.03;;;2.20;;
22191;SDS011;11261;52.456;10.850;2023-05-29T00:45:30;5.30;;;2.38;;
22191;SDS011;11261;52.456;10.850;2023-05-29T00:48:02;4.15;;;2.72;;
22191;SDS011;11261;52.456;10.850;2023-05-29T00:50:32;3.78;;;2.15;;
22191;SDS011;11261;52.456;10.850;2023-05-29T00:53:01;5.38;;;2.63;;
22191;SDS011;11261;52.456;10.850;2023-05-29T00:55:31;4.10;;;2.20;;
22191;SDS011;11261;52.456;10.850;2023-05-29T00:57:59;4.78;;;2.13;;
22191;SDS011;11261;52.456;10.850;2023-05-29T01:00:28;6.70;;;2.30;;
22191;SDS011;11261;52.456;10.850;2023-05-29T01:02:57;3.33;;;2.28;;
22191;SDS011;11261;52.456;10.850;2023-05-29T01:05:25;3.42;;;2.30;;
22191;SDS011;11261;52.456;10.850;2023-05-29T01:07:56;3.85;;;2.00;;
22191;SDS011;11261;52.456;10.850;2023-05-29T01:10:25;5.05;;;1.92;;
22191;SDS011;11261;52.456;10.850;2023-05-29T01:12:56;4.63;;;1.92;;
22191;SDS011;11261;52.456;10.850;2023-05-29T01:15:29;3.40;;;2.05;;
22191;SDS011;11261;52.456;10.850;2023-05-29T01:18:17;3.83;;;1.83;;
22191;SDS011;11261;52.456;10.850;2023-05-29T01:20:53;3.45;;;2.05;;
22191;SDS011;11261;52.456;10.850;2023-05-29T01:23:40;3.45;;;1.95;;
22191;SDS011;11261;52.456;10.850;2023-05-29T01:26:42;2.70;;;1.77;;
22191;SDS011;11261;52.456;10.850;2023-05-29T01:29:17;2.40;;;1.90;;
22191;SDS011;11261;52.456;10.850;2023-05-29T01:31:49;6.05;;;2.10;;
22191;SDS011;11261;52.456;10.850;2023-05-29T01:34:19;2.97;;;1.85;;
22191;SDS011;11261;52.456;10.850;2023-05-29T01:36:47;3.20;;;2.08;;
22191;SDS011;11261;52.456;10.850;2023-05-29T01:39:16;3.70;;;1.80;;
22191;SDS011;11261;52.456;10.850;2023-05-29T01:41:46;4.85;;;1.85;;
22191;SDS011;11261;52.456;10.850;2023-05-29T01:44:15;2.65;;;1.67;;
22191;SDS011;11261;52.456;10.850;2023-05-29T01:46:45;4.63;;;1.65;;
22191;SDS011;11261;52.456;10.850;2023-05-29T01:49:13;2.33;;;1.65;;
22191;SDS011;11261;52.456;10.850;2023-05-29T01:51:43;3.92;;;1.65;;
22191;SDS011;11261;52.456;10.850;2023-05-29T01:54:11;2.72;;;1.88;;
22191;SDS011;11261;52.456;10.850;2023-05-29T01:56:41;4.55;;;1.77;;
22191;SDS011;11261;52.456;10.850;2023-05-29T01:59:12;2.70;;;2.03;;
22191;SDS011;11261;52.456;10.850;2023-05-29T02:01:41;2.90;;;1.77;;
22191;SDS011;11261;52.456;10.850;2023-05-29T02:04:09;3.60;;;1.75;;
22191;SDS011;11261;52.456;10.850;2023-05-29T02:06:37;5.45;;;2.05;;
22191;SDS011;11261;52.456;10.850;2023-05-29T02:09:05;4.30;;;2.13;;
22191;SDS011;11261;52.456;10.850;2023-05-29T02:11:34;2.80;;;1.63;;
22191;SDS011;11261;52.456;10.850;2023-05-29T02:14:02;3.58;;;2.17;;
22191;SDS011;11261;52.456;10.850;2023-05-29T02:16:32;2.92;;;2.08;;
22191;SDS011;11261;52.456;10.850;2023-05-29T02:19:01;5.32;;;2.47;;
22191;SDS011;11261;52.456;10.850;2023-05-29T02:21:30;7.00;;;2.47;;
22191;SDS011;11261;52.456;10.850;2023-05-29T02:23:58;5.32;;;2.38;;
22191;SDS011;11261;52.456;10.850;2023-05-29T02:26:27;5.97;;;2.70;;
22191;SDS011;11261;52.456;10.850;2023-05-29T02:28:55;4.82;;;3.25;;
22191;SDS011;11261;52.456;10.850;2023-05-29T02:31:23;5.07;;;2.83;;
22191;SDS011;11261;52.456;10.850;2023-05-29T02:33:53;9.18;;;3.38;;
22191;SDS011;11261;52.456;10.850;2023-05-29T02:36:21;8.20;;;3.38;;
22191;SDS011;11261;52.456;10.850;2023-05-29T02:38:50;5.90;;;3.33;;
22191;SDS011;11261;52.456;10.850;2023-05-29T02:41:18;7.35;;;3.38;;
22191;SDS011;11261;52.456;10.850;2023-05-29T02:43:47;7.05;;;3.22;;
22191;SDS011;11261;52.456;10.850;2023-05-29T02:46:15;6.00;;;3.05;;
22191;SDS011;11261;52.456;10.850;2023-05-29T02:48:43;6.13;;;3.20;;
22191;SDS011;11261;52.456;10.850;2023-05-29T02:51:13;6.07;;;3.03;;
22191;SDS011;11261;52.456;10.850;2023-05-29T02:53:42;6.85;;;3.35;;
22191;SDS011;11261;52.456;10.850;2023-05-29T02:56:10;4.85;;;3.00;;
22191;SDS011;11261;52.456;10.850;2023-05-29T02:58:39;9.32;;;3.67;;
22191;SDS011;11261;52.456;10.850;2023-05-29T03:01:07;7.10;;;3.22;;
22191;SDS011;11261;52.456;10.850;2023-05-29T03:03:36;8.35;;;2.58;;
22191;SDS011;11261;52.456;10.850;2023-05-29T03:06:04;8.73;;;2.83;;
22191;SDS011;11261;52.456;10.850;2023-05-29T03:08:34;5.85;;;2.40;;
22191;SDS011;11261;52.456;10.850;2023-05-29T03:11:06;2.90;;;2.30;;
22191;SDS011;11261;52.456;10.850;2023-05-29T03:13:35;6.07;;;2.47;;
22191;SDS011;11261;52.456;10.850;2023-05-29T03:16:04;5.45;;;2.63;;
22191;SDS011;11261;52.456;10.850;2023-05-29T03:18:34;4.07;;;2.55;;
22191;SDS011;11261;52.456;10.850;2023-05-29T03:21:03;5.07;;;2.33;;
22191;SDS011;11261;52.456;10.850;2023-05-29T03:23:31;4.72;;;2.53;;
22191;SDS011;11261;52.456;10.850;2023-05-29T03:26:01;5.40;;;2.25;;
22191;SDS011;11261;52.456;10.850;2023-05-29T03:28:30;5.55;;;2.00;;
22191;SDS011;11261;52.456;10.850;2023-05-29T03:30:58;6.85;;;2.25;;
22191;SDS011;11261;52.456;10.850;2023-05-29T03:33:26;4.28;;;2.30;;
22191;SDS011;11261;52.456;10.850;2023-05-29T03:35:55;5.07;;;2.53;;
22191;SDS011;11261;52.456;10.850;2023-05-29T03:38:23;5.75;;;2.28;;
22191;SDS011;11261;52.456;10.850;2023-05-29T03:40:51;5.68;;;2.30;;
22191;SDS011;11261;52.456;10.850;2023-05-29T03:43:21;4.10;;;2.55;;
22191;SDS011;11261;52.456;10.850;2023-05-29T03:45:49;7.78;;;2.90;;
22191;SDS011;11261;52.456;10.850;2023-05-29T03:48:18;5.57;;;2.80;;
22191;SDS011;11261;52.456;10.850;2023-05-29T03:50:46;8.90;;;3.38;;
22191;SDS011;11261;52.456;10.850;2023-05-29T03:53:14;5.53;;;3.47;;
22191;SDS011;11261;52.456;10.850;2023-05-29T03:55:43;7.20;;;3.70;;
22191;SDS011;11261;52.456;10.850;2023-05-29T03:58:11;6.78;;;3.80;;
22191;SDS011;11261;52.456;10.850;2023-05-29T04:00:41;9.30;;;4.25;;
22191;SDS011;11261;52.456;10.850;2023-05-29T04:03:09;7.90;;;4.20;;
22191;SDS011;11261;52.456;10.850;2023-05-29T04:05:38;6.10;;;3.80;;
22191;SDS011;11261;52.456;10.850;2023-05-29T04:08:06;7.72;;;4.10;;
22191;SDS011;11261;52.456;10.850;2023-05-29T04:10:39;9.98;;;4.28;;
22191;SDS011;11261;52.456;10.850;2023-05-29T04:13:08;6.45;;;3.65;;
22191;SDS011;11261;52.456;10.850;2023-05-29T04:15:36;7.38;;;3.42;;
22191;SDS011;11261;52.456;10.850;2023-05-29T04:18:06;5.05;;;2.90;;
22191;SDS011;11261;52.456;10.850;2023-05-29T04:20:35;8.50;;;2.95;;
22191;SDS011;11261;52.456;10.850;2023-05-29T04:23:03;5.60;;;3.30;;
22191;SDS011;11261;52.456;10.850;2023-05-29T04:25:31;7.63;;;3.30;;
22191;SDS011;11261;52.456;10.850;2023-05-29T04:28:00;6.32;;;2.85;;
22191;SDS011;11261;52.456;10.850;2023-05-29T04:30:29;6.07;;;2.65;;
22191;SDS011;11261;52.456;10.850;2023-05-29T04:33:00;4.70;;;2.70;;
22191;SDS011;11261;52.456;10.850;2023-05-29T04:35:31;5.63;;;2.33;;
22191;SDS011;11261;52.456;10.850;2023-05-29T04:38:00;5.43;;;2.78;;
22191;SDS011;11261;52.456;10.850;2023-05-29T04:40:28;5.05;;;2.85;;
22191;SDS011;11261;52.456;10.850;2023-05-29T04:42:58;8.50;;;3.05;;
22191;SDS011;11261;52.456;10.850;2023-05-29T04:45:28;6.40;;;3.13;;
22191;SDS011;11261;52.456;10.850;2023-05-29T04:47:56;5.93;;;2.63;;
22191;SDS011;11261;52.456;10.850;2023-05-29T04:50:25;10.13;;;2.70;;
22191;SDS011;11261;52.456;10.850;2023-05-29T04:52:58;5.80;;;2.58;;
22191;SDS011;11261;52.456;10.850;2023-05-29T04:55:26;5.03;;;2.90;;
22191;SDS011;11261;52.456;10.850;2023-05-29T04:57:55;6.53;;;2.55;;
22191;SDS011;11261;52.456;10.850;2023-05-29T05:00:23;9.60;;;2.30;;
22191;SDS011;11261;52.456;10.850;2023-05-29T05:02:52;7.68;;;2.08;;
22191;SDS011;11261;52.456;10.850;2023-05-29T05:05:20;8.70;;;3.30;;
22191;SDS011;11261;52.456;10.850;2023-05-29T05:07:48;8.02;;;2.85;;
22191;SDS011;11261;52.456;10.850;2023-05-29T05:10:18;9.88;;;2.83;;
22191;SDS011;11261;52.456;10.850;2023-05-29T05:12:46;7.22;;;2.40;;
22191;SDS011;11261;52.456;10.850;2023-05-29T05:15:14;5.70;;;2.40;;
22191;SDS011;11261;52.456;10.850;2023-05-29T05:17:43;5.95;;;2.47;;
22191;SDS011;11261;52.456;10.850;2023-05-29T05:20:11;4.10;;;2.00;;
22191;SDS011;11261;52.456;10.850;2023-05-29T05:22:41;8.05;;;2.95;;
22191;SDS011;11261;52.456;10.850;2023-05-29T05:25:09;8.90;;;2.40;;
22191;SDS011;11261;52.456;10.850;2023-05-29T05:27:39;7.65;;;2.75;;
22191;SDS011;11261;52.456;10.850;2023-05-29T05:30:08;6.75;;;2.67;;
22191;SDS011;11261;52.456;10.850;2023-05-29T05:32:37;8.05;;;2.63;;
22191;SDS011;11261;52.456;10.850;2023-05-29T05:35:05;6.95;;;2.42;;
22191;SDS011;11261;52.456;10.850;2023-05-29T05:37:36;6.90;;;2.63;;
22191;SDS011;11261;52.456;10.850;2023-05-29T05:40:05;8.90;;;2.17;;
22191;SDS011;11261;52.456;10.850;2023-05-29T05:42:35;7.68;;;2.92;;
22191;SDS011;11261;52.456;10.850;2023-05-29T05:45:05;6.18;;;2.38;;
22191;SDS011;11261;52.456;10.850;2023-05-29T05:47:34;8.45;;;2.72;;
22191;SDS011;11261;52.456;10.850;2023-05-29T05:50:03;8.13;;;2.60;;
22191;SDS011;11261;52.456;10.850;2023-05-29T05:52:32;12.75;;;3.05;;
22191;SDS011;11261;52.456;10.850;2023-05-29T05:55:00;9.32;;;2.65;;
22191;SDS011;11261;52.456;10.850;2023-05-29T05:57:29;4.72;;;2.13;;
22191;SDS011;11261;52.456;10.850;2023-05-29T05:59:59;8.88;;;2.78;;
22191;SDS011;11261;52.456;10.850;2023-05-29T06:02:33;7.95;;;2.78;;
22191;SDS011;11261;52.456;10.850;2023-05-29T06:05:01;9.85;;;2.42;;
22191;SDS011;11261;52.456;10.850;2023-05-29T06:07:30;7.05;;;1.75;;
22191;SDS011;11261;52.456;10.850;2023-05-29T06:09:58;7.30;;;2.25;;
22191;SDS011;11261;52.456;10.850;2023-05-29T06:12:26;11.07;;;2.58;;
22191;SDS011;11261;52.456;10.850;2023-05-29T06:14:55;8.82;;;2.30;;
22191;SDS011;11261;52.456;10.850;2023-05-29T06:17:23;5.75;;;2.13;;
22191;SDS011;11261;52.456;10.850;2023-05-29T06:19:53;6.78;;;1.90;;
22191;SDS011;11261;52.456;10.850;2023-05-29T06:22:22;6.35;;;1.90;;
22191;SDS011;11261;52.456;10.850;2023-05-29T06:24:50;5.15;;;2.03;;
22191;SDS011;11261;52.456;10.850;2023-05-29T06:27:18;9.00;;;2.78;;
22191;SDS011;11261;52.456;10.850;2023-05-29T06:29:49;5.50;;;2.05;;
22191;SDS011;11261;52.456;10.850;2023-05-29T06:32:17;9.13;;;2.40;;
22191;SDS011;11261;52.456;10.850;2023-05-29T06:34:46;11.90;;;2.38;;
22191;SDS011;11261;52.456;10.850;2023-05-29T06:37:16;4.72;;;2.08;;
22191;SDS011;11261;52.456;10.850;2023-05-29T06:39:44;7.28;;;2.15;;
22191;SDS011;11261;52.456;10.850;2023-05-29T06:42:12;6.93;;;2.15;;
22191;SDS011;11261;52.456;10.850;2023-05-29T06:44:41;8.57;;;2.47;;
22191;SDS011;11261;52.456;10.850;2023-05-29T06:47:09;9.88;;;2.30;;
22191;SDS011;11261;52.456;10.850;2023-05-29T06:49:38;5.50;;;2.00;;
22191;SDS011;11261;52.456;10.850;2023-05-29T06:52:06;9.35;;;2.63;;
22191;SDS011;11261;52.456;10.850;2023-05-29T06:54:36;6.97;;;2.33;;
22191;SDS011;11261;52.456;10.850;2023-05-29T06:57:04;7.25;;;2.33;;
22191;SDS011;11261;52.456;10.850;2023-05-29T06:59:36;7.20;;;2.42;;
22191;SDS011;11261;52.456;10.850;2023-05-29T07:02:05;8.43;;;3.20;;
22191;SDS011;11261;52.456;10.850;2023-05-29T07:04:34;9.70;;;3.10;;
22191;SDS011;11261;52.456;10.850;2023-05-29T07:07:02;8.90;;;3.42;;
22191;SDS011;11261;52.456;10.850;2023-05-29T07:09:31;7.80;;;3.05;;
22191;SDS011;11261;52.456;10.850;2023-05-29T07:12:00;7.38;;;2.80;;
22191;SDS011;11261;52.456;10.850;2023-05-29T07:14:29;8.57;;;2.50;;
22191;SDS011;11261;52.456;10.850;2023-05-29T07:16:57;8.60;;;2.83;;
22191;SDS011;11261;52.456;10.850;2023-05-29T07:19:26;6.75;;;2.20;;
22191;SDS011;11261;52.456;10.850;2023-05-29T07:21:55;8.90;;;2.55;;
22191;SDS011;11261;52.456;10.850;2023-05-29T07:24:23;9.32;;;2.58;;
22191;SDS011;11261;52.456;10.850;2023-05-29T07:26:52;7.72;;;2.15;;
22191;SDS011;11261;52.456;10.850;2023-05-29T07:29:23;7.47;;;2.20;;
22191;SDS011;11261;52.456;10.850;2023-05-29T07:31:51;7.60;;;2.28;;
22191;SDS011;11261;52.456;10.850;2023-05-29T07:34:20;6.95;;;2.25;;
22191;SDS011;11261;52.456;10.850;2023-05-29T07:36:58;7.63;;;2.38;;
22191;SDS011;11261;52.456;10.850;2023-05-29T07:39:29;6.95;;;1.88;;
22191;SDS011;11261;52.456;10.850;2023-05-29T07:41:58;8.75;;;2.22;;
22191;SDS011;11261;52.456;10.850;2023-05-29T07:44:28;5.53;;;2.05;;
22191;SDS011;11261;52.456;10.850;2023-05-29T07:46:57;7.30;;;1.98;;
22191;SDS011;11261;52.456;10.850;2023-05-29T07:49:25;6.03;;;2.22;;
22191;SDS011;11261;52.456;10.850;2023-05-29T07:51:54;7.50;;;2.25;;
22191;SDS011;11261;52.456;10.850;2023-05-29T07:54:22;7.40;;;2.00;;
22191;SDS011;11261;52.456;10.850;2023-05-29T07:56:51;7.05;;;2.03;;
22191;SDS011;11261;52.456;10.850;2023-05-29T07:59:19;5.50;;;1.90;;
22191;SDS011;11261;52.456;10.850;2023-05-29T08:01:48;6.65;;;1.98;;
22191;SDS011;11261;52.456;10.850;2023-05-29T08:04:16;4.20;;;1.67;;
22191;SDS011;11261;52.456;10.850;2023-05-29T08:06:45;5.97;;;1.63;;
22191;SDS011;11261;52.456;10.850;2023-05-29T08:09:13;5.75;;;1.73;;
22191;SDS011;11261;52.456;10.850;2023-05-29T08:11:41;7.57;;;2.00;;
22191;SDS011;11261;52.456;10.850;2023-05-29T08:14:11;3.88;;;1.65;;
22191;SDS011;11261;52.456;10.850;2023-05-29T08:16:40;6.28;;;1.48;;
22191;SDS011;11261;52.456;10.850;2023-05-29T08:19:09;4.00;;;1.63;;
22191;SDS011;11261;52.456;10.850;2023-05-29T08:21:38;7.95;;;2.08;;
22191;SDS011;11261;52.456;10.850;2023-05-29T08:24:07;8.18;;;1.90;;
22191;SDS011;11261;52.456;10.850;2023-05-29T08:26:35;8.93;;;1.90;;
22191;SDS011;11261;52.456;10.850;2023-05-29T08:29:04;3.58;;;1.40;;
22191;SDS011;11261;52.456;10.850;2023-05-29T08:31:33;3.22;;;1.30;;
22191;SDS011;11261;52.456;10.850;2023-05-29T08:34:02;10.75;;;2.00;;
22191;SDS011;11261;52.456;10.850;2023-05-29T08:36:32;7.72;;;2.20;;
22191;SDS011;11261;52.456;10.850;2023-05-29T08:39:00;8.27;;;1.75;;
22191;SDS011;11261;52.456;10.850;2023-05-29T08:41:31;8.05;;;1.77;;
22191;SDS011;11261;52.456;10.850;2023-05-29T08:44:05;5.72;;;1.65;;
22191;SDS011;11261;52.456;10.850;2023-05-29T08:46:40;9.13;;;1.95;;
22191;SDS011;11261;52.456;10.850;2023-05-29T08:49:10;3.53;;;1.33;;
22191;SDS011;11261;52.456;10.850;2023-05-29T08:51:44;4.28;;;1.50;;
22191;SDS011;11261;52.456;10.850;2023-05-29T08:54:16;5.95;;;1.60;;
22191;SDS011;11261;52.456;10.850;2023-05-29T08:56:45;5.05;;;1.90;;
22191;SDS011;11261;52.456;10.850;2023-05-29T08:59:13;5.78;;;1.60;;
22191;SDS011;11261;52.456;10.850;2023-05-29T09:01:43;3.28;;;1.33;;
22191;SDS011;11261;52.456;10.850;2023-05-29T09:04:12;8.68;;;1.60;;
22191;SDS011;11261;52.456;10.850;2023-05-29T09:06:41;4.95;;;1.90;;
22191;SDS011;11261;52.456;10.850;2023-05-29T09:09:11;6.30;;;1.90;;
22191;SDS011;11261;52.456;10.850;2023-05-29T09:11:39;5.28;;;1.55;;
22191;SDS011;11261;52.456;10.850;2023-05-29T09:14:10;5.15;;;1.33;;
22191;SDS011;11261;52.456;10.850;2023-05-29T09:17:00;4.18;;;1.70;;
22191;SDS011;11261;52.456;10.850;2023-05-29T09:19:30;5.88;;;1.75;;
22191;SDS011;11261;52.456;10.850;2023-05-29T09:22:01;6.03;;;1.27;;
22191;SDS011;11261;52.456;10.850;2023-05-29T09:24:33;4.90;;;1.60;;
22191;SDS011;11261;52.456;10.850;2023-05-29T09:27:03;5.30;;;1.70;;
22191;SDS011;11261;52.456;10.850;2023-05-29T09:29:37;6.35;;;1.60;;
22191;SDS011;11261;52.456;10.850;2023-05-29T09:32:06;4.70;;;1.33;;
22191;SDS011;11261;52.456;10.850;2023-05-29T09:34:36;4.20;;;1.55;;
22191;SDS011;11261;52.456;10.850;2023-05-29T09:37:05;3.80;;;1.60;;
22191;SDS011;11261;52.456;10.850;2023-05-29T09:39:46;2.83;;;1.25;;
22191;SDS011;11261;52.456;10.850;2023-05-29T09:42:15;4.15;;;1.27;;
22191;SDS011;11261;52.456;10.850;2023-05-29T09:44:44;2.75;;;1.27;;
22191;SDS011;11261;52.456;10.850;2023-05-29T09:47:16;3.60;;;1.45;;
22191;SDS011;11261;52.456;10.850;2023-05-29T09:49:45;5.65;;;1.65;;
22191;SDS011;11261;52.456;10.850;2023-05-29T09:52:14;2.28;;;1.27;;
22191;SDS011;11261;52.456;10.850;2023-05-29T09:54:43;5.25;;;1.45;;
22191;SDS011;11261;52.456;10.850;2023-05-29T09:57:14;3.47;;;1.70;;
22191;SDS011;11261;52.456;10.850;2023-05-29T09:59:44;5.55;;;1.48;;
22191;SDS011;11261;52.456;10.850;2023-05-29T10:02:18;4.55;;;1.45;;
22191;SDS011;11261;52.456;10.850;2023-05-29T10:04:47;6.20;;;1.30;;
22191;SDS011;11261;52.456;10.850;2023-05-29T10:07:20;4.43;;;1.60;;
22191;SDS011;11261;52.456;10.850;2023-05-29T10:09:58;3.60;;;1.30;;
22191;SDS011;11261;52.456;10.850;2023-05-29T10:12:30;3.13;;;1.40;;
22191;SDS011;11261;52.456;10.850;2023-05-29T10:15:02;3.55;;;1.10;;
22191;SDS011;11261;52.456;10.850;2023-05-29T10:17:33;3.80;;;1.50;;
22191;SDS011;11261;52.456;10.850;2023-05-29T10:20:05;4.10;;;1.45;;
22191;SDS011;11261;52.456;10.850;2023-05-29T10:22:38;5.00;;;1.60;;
22191;SDS011;11261;52.456;10.850;2023-05-29T10:25:13;3.90;;;1.15;;
22191;SDS011;11261;52.456;10.850;2023-05-29T10:27:46;3.60;;;1.63;;
22191;SDS011;11261;52.456;10.850;2023-05-29T10:30:20;3.42;;;1.42;;
22191;SDS011;11261;52.456;10.850;2023-05-29T10:36:01;4.70;;;1.55;;
22191;SDS011;11261;52.456;10.850;2023-05-29T10:38:35;3.65;;;1.95;;
22191;SDS011;11261;52.456;10.850;2023-05-29T10:41:28;3.33;;;1.35;;
22191;SDS011;11261;52.456;10.850;2023-05-29T10:43:58;4.07;;;1.25;;
22191;SDS011;11261;52.456;10.850;2023-05-29T10:49:32;4.10;;;1.60;;
22191;SDS011;11261;52.456;10.850;2023-05-29T10:52:01;6.88;;;1.73;;
22191;SDS011;11261;52.456;10.850;2023-05-29T10:54:50;3.47;;;1.58;;
22191;SDS011;11261;52.456;10.850;2023-05-29T10:57:20;4.60;;;1.77;;
22191;SDS011;11261;52.456;10.850;2023-05-29T11:00:00;6.07;;;1.67;;
22191;SDS011;11261;52.456;10.850;2023-05-29T11:02:35;3.67;;;1.63;;
22191;SDS011;11261;52.456;10.850;2023-05-29T11:05:06;2.78;;;1.70;;
22191;SDS011;11261;52.456;10.850;2023-05-29T11:07:50;3.72;;;1.45;;
22191;SDS011;11261;52.456;10.850;2023-05-29T11:10:43;2.22;;;1.30;;
22191;SDS011;11261;52.456;10.850;2023-05-29T11:13:24;3.38;;;1.52;;
22191;SDS011;11261;52.456;10.850;2023-05-29T11:19:06;2.42;;;1.40;;
22191;SDS011;11261;52.456;10.850;2023-05-29T11:21:44;5.15;;;1.95;;
22191;SDS011;11261;52.456;10.850;2023-05-29T11:24:22;5.05;;;1.90;;
22191;SDS011;11261;52.456;10.850;2023-05-29T11:26:52;5.15;;;1.85;;
22191;SDS011;11261;52.456;10.850;2023-05-29T11:29:21;5.45;;;1.80;;
22191;SDS011;11261;52.456;10.850;2023-05-29T11:31:54;3.60;;;1.55;;
22191;SDS011;11261;52.456;10.850;2023-05-29T11:34:29;3.60;;;1.40;;
22191;SDS011;11261;52.456;10.850;2023-05-29T11:36:58;3.90;;;1.50;;
22191;SDS011;11261;52.456;10.850;2023-05-29T11:39:27;3.28;;;1.30;;
22191;SDS011;11261;52.456;10.850;2023-05-29T11:41:57;5.20;;;1.65;;
22191;SDS011;11261;52.456;10.850;2023-05-29T11:44:28;2.80;;;1.42;;
22191;SDS011;11261;52.456;10.850;2023-05-29T11:47:00;4.85;;;1.70;;
22191;SDS011;11261;52.456;10.850;2023-05-29T11:49:31;8.00;;;1.58;;
22191;SDS011;11261;52.456;10.850;2023-05-29T11:52:07;4.22;;;1.10;;
22191;SDS011;11261;52.456;10.850;2023-05-29T11:54:42;4.20;;;1.33;;
22191;SDS011;11261;52.456;10.850;2023-05-29T11:57:17;3.75;;;1.27;;
22191;SDS011;11261;52.456;10.850;2023-05-29T11:59:46;4.35;;;1.40;;
22191;SDS011;11261;52.456;10.850;2023-05-29T12:02:15;3.72;;;1.40;;
22191;SDS011;11261;52.456;10.850;2023-05-29T12:04:44;7.07;;;1.55;;
22191;SDS011;11261;52.456;10.850;2023-05-29T12:07:27;2.53;;;1.25;;
22191;SDS011;11261;52.456;10.850;2023-05-29T12:09:56;4.25;;;1.50;;
22191;SDS011;11261;52.456;10.850;2023-05-29T12:12:32;5.05;;;1.52;;
22191;SDS011;11261;52.456;10.850;2023-05-29T12:15:02;4.05;;;1.80;;
22191;SDS011;11261;52.456;10.850;2023-05-29T12:17:33;3.65;;;1.58;;
22191;SDS011;11261;52.456;10.850;2023-05-29T12:20:03;3.65;;;1.60;;
22191;SDS011;11261;52.456;10.850;2023-05-29T12:22:35;4.10;;;1.48;;
22191;SDS011;11261;52.456;10.850;2023-05-29T12:25:05;3.83;;;1.40;;
22191;SDS011;11261;52.456;10.850;2023-05-29T12:27:36;2.70;;;1.52;;
22191;SDS011;11261;52.456;10.850;2023-05-29T12:30:09;3.33;;;1.70;;
22191;SDS011;11261;52.456;10.850;2023-05-29T12:32:54;3.72;;;1.20;;
22191;SDS011;11261;52.456;10.850;2023-05-29T12:35:23;5.13;;;1.70;;
22191;SDS011;11261;52.456;10.850;2023-05-29T12:37:53;2.80;;;1.38;;
22191;SDS011;11261;52.456;10.850;2023-05-29T12:40:23;4.35;;;1.40;;
22191;SDS011;11261;52.456;10.850;2023-05-29T12:42:55;4.93;;;1.70;;
22191;SDS011;11261;52.456;10.850;2023-05-29T12:45:25;4.15;;;1.50;;
22191;SDS011;11261;52.456;10.850;2023-05-29T12:47:54;4.25;;;1.60;;
22191;SDS011;11261;52.456;10.850;2023-05-29T12:50:24;6.75;;;1.70;;
22191;SDS011;11261;52.456;10.850;2023-05-29T12:52:54;4.05;;;1.70;;
22191;SDS011;11261;52.456;10.850;2023-05-29T12:55:26;4.25;;;1.60;;
22191;SDS011;11261;52.456;10.850;2023-05-29T12:57:57;4.15;;;1.58;;
22191;SDS011;11261;52.456;10.850;2023-05-29T13:00:26;3.67;;;1.52;;
22191;SDS011;11261;52.456;10.850;2023-05-29T13:02:54;3.90;;;1.50;;
22191;SDS011;11261;52.456;10.850;2023-05-29T13:05:22;4.90;;;1.50;;
22191;SDS011;11261;52.456;10.850;2023-05-29T13:07:51;4.45;;;1.60;;
22191;SDS011;11261;52.456;10.850;2023-05-29T13:10:20;2.58;;;1.45;;
22191;SDS011;11261;52.456;10.850;2023-05-29T13:12:49;5.18;;;1.67;;
22191;SDS011;11261;52.456;10.850;2023-05-29T13:15:22;4.07;;;1.63;;
22191;SDS011;11261;52.456;10.850;2023-05-29T13:17:51;3.20;;;1.25;;
22191;SDS011;11261;52.456;10.850;2023-05-29T13:20:20;5.07;;;1.40;;
22191;SDS011;11261;52.456;10.850;2023-05-29T13:22:49;4.38;;;1.42;;
22191;SDS011;11261;52.456;10.850;2023-05-29T13:25:17;6.15;;;1.45;;
22191;SDS011;11261;52.456;10.850;2023-05-29T13:27:47;4.45;;;1.42;;
22191;SDS011;11261;52.456;10.850;2023-05-29T13:30:16;3.28;;;1.60;;
22191;SDS011;11261;52.456;10.850;2023-05-29T13:32:46;3.83;;;1.70;;
22191;SDS011;11261;52.456;10.850;2023-05-29T13:35:15;4.53;;;1.55;;
22191;SDS011;11261;52.456;10.850;2023-05-29T13:37:43;6.72;;;1.50;;
22191;SDS011;11261;52.456;10.850;2023-05-29T13:40:11;5.35;;;1.48;;
22191;SDS011;11261;52.456;10.850;2023-05-29T13:42:40;5.60;;;1.83;;
22191;SDS011;11261;52.456;10.850;2023-05-29T13:45:09;6.00;;;1.40;;
22191;SDS011;11261;52.456;10.850;2023-05-29T13:47:38;5.22;;;1.50;;
22191;SDS011;11261;52.456;10.850;2023-05-29T13:50:08;6.63;;;1.90;;
22191;SDS011;11261;52.456;10.850;2023-05-29T13:52:37;5.13;;;1.45;;
22191;SDS011;11261;52.456;10.850;2023-05-29T13:55:06;3.08;;;1.33;;
22191;SDS011;11261;52.456;10.850;2023-05-29T13:57:36;2.40;;;1.30;;
22191;SDS011;11261;52.456;10.850;2023-05-29T14:00:04;4.13;;;1.83;;
22191;SDS011;11261;52.456;10.850;2023-05-29T14:02:34;3.50;;;1.35;;
22191;SDS011;11261;52.456;10.850;2023-05-29T14:05:03;4.72;;;1.60;;
22191;SDS011;11261;52.456;10.850;2023-05-29T14:07:34;5.28;;;1.80;;
22191;SDS011;11261;52.456;10.850;2023-05-29T14:10:02;3.72;;;1.67;;
22191;SDS011;11261;52.456;10.850;2023-05-29T14:12:32;4.80;;;1.45;;
22191;SDS011;11261;52.456;10.850;2023-05-29T14:15:01;4.18;;;1.50;;
22191;SDS011;11261;52.456;10.850;2023-05-29T14:17:29;3.92;;;1.58;;
22191;SDS011;11261;52.456;10.850;2023-05-29T14:19:57;3.10;;;1.48;;
22191;SDS011;11261;52.456;10.850;2023-05-29T14:22:28;4.55;;;1.67;;
22191;SDS011;11261;52.456;10.850;2023-05-29T14:24:58;4.95;;;1.60;;
22191;SDS011;11261;52.456;10.850;2023-05-29T14:27:27;4.78;;;1.65;;
22191;SDS011;11261;52.456;10.850;2023-05-29T14:29:55;3.17;;;1.65;;
22191;SDS011;11261;52.456;10.850;2023-05-29T14:32:23;3.78;;;1.60;;
22191;SDS011;11261;52.456;10.850;2023-05-29T14:34:52;4.78;;;1.60;;
22191;SDS011;11261;52.456;10.850;2023-05-29T14:37:20;3.95;;;1.45;;
22191;SDS011;11261;52.456;10.850;2023-05-29T14:39:49;3.58;;;1.40;;
22191;SDS011;11261;52.456;10.850;2023-05-29T14:42:18;2.70;;;1.20;;
22191;SDS011;11261;52.456;10.850;2023-05-29T14:44:47;3.65;;;1.20;;
22191;SDS011;11261;52.456;10.850;2023-05-29T14:47:16;3.92;;;1.60;;
22191;SDS011;11261;52.456;10.850;2023-05-29T14:49:45;4.30;;;1.55;;
22191;SDS011;11261;52.456;10.850;2023-05-29T14:52:13;7.43;;;1.50;;
22191;SDS011;11261;52.456;10.850;2023-05-29T14:54:41;3.17;;;1.25;;
22191;SDS011;11261;52.456;10.850;2023-05-29T14:57:09;5.70;;;1.42;;
22191;SDS011;11261;52.456;10.850;2023-05-29T14:59:39;3.35;;;1.30;;